sensor_id;sensor_type;location;lat;lon;timestamp;pressure;altitude;pressure_sealevel;temperature;humidity
81608;BME280;71022;48.122;11.576;2024-02-23T00:01:10;93747.13;;;8.96;74.30
81608;BME280;71022;48.122;11.576;2024-02-23T00:03:39;93735.41;;;8.92;73.22
81608;BME280;71022;48.122;11.576;2024-02-23T00:06:06;93747.94;;;8.89;74.52
81608;BME280;71022;48.122;11.576;2024-02-23T00:08:36;93746.72;;;8.80;74.85
81608;BME280;71022;48.122;11.576;2024-02-23T00:11:04;93742.88;;;9.09;72.61
81608;BME280;71022;48.122;11.576;2024-02-23T00:13:33;93752.63;;;8.93;73.15
81608;BME280;71022;48.122;11.576;2024-02-23T00:16:00;93738.91;;;8.82;73.44
81608;BME280;71022;48.122;11.576;2024-02-23T00:18:27;93755.72;;;8.77;73.33
81608;BME280;71022;48.122;11.576;2024-02-23T00:20:55;93761.56;;;8.75;73.69
81608;BME280;71022;48.122;11.576;2024-02-23T00:23:23;93756.50;;;8.88;73.08
81608;BME280;71022;48.122;11.576;2024-02-23T00:25:50;93754.16;;;8.83;72.80
81608;BME280;71022;48.122;11.576;2024-02-23T00:28:18;93761.16;;;8.70;73.77
81608;BME280;71022;48.122;11.576;2024-02-23T00:30:45;93751.34;;;8.55;74.30
81608;BME280;71022;48.122;11.576;2024-02-23T00:33:12;93760.31;;;8.55;74.27
81608;BME280;71022;48.122;11.576;2024-02-23T00:35:39;93755.19;;;8.40;74.78
81608;BME280;71022;48.122;11.576;2024-02-23T00:38:07;93758.72;;;8.44;74.58
81608;BME280;71022;48.122;11.576;2024-02-23T00:40:34;93753.66;;;8.42;74.85
81608;BME280;71022;48.122;11.576;2024-02-23T00:43:01;93753.66;;;8.42;74.44
81608;BME280;71022;48.122;11.576;2024-02-23T00:45:30;93763.75;;;8.34;74.17
81608;BME280;71022;48.122;11.576;2024-02-23T00:47:57;93762.69;;;8.57;73.58
81608;BME280;71022;48.122;11.576;2024-02-23T00:50:24;93767.94;;;8.14;73.97
81608;BME280;71022;48.122;11.576;2024-02-23T00:52:53;93774.22;;;8.25;74.21
81608;BME280;71022;48.122;11.576;2024-02-23T00:55:21;93771.06;;;8.16;74.78
81608;BME280;71022;48.122;11.576;2024-02-23T00:57:48;93778.13;;;8.21;74.68
81608;BME280;71022;48.122;11.576;2024-02-23T01:00:16;93775.94;;;8.51;73.12
81608;BME280;71022;48.122;11.576;2024-02-23T01:02:43;93774.75;;;8.42;72.91
81608;BME280;71022;48.122;11.576;2024-02-23T01:05:10;93788.44;;;8.52;72.63
81608;BME280;71022;48.122;11.576;2024-02-23T01:07:38;93780.66;;;8.58;72.34
81608;BME280;71022;48.122;11.576;2024-02-23T01:10:05;93780.09;;;8.24;73.79
81608;BME280;71022;48.122;11.576;2024-02-23T01:12:33;93792.97;;;8.23;73.22
81608;BME280;71022;48.122;11.576;2024-02-23T01:15:00;93789.47;;;8.26;73.95
81608;BME280;71022;48.122;11.576;2024-02-23T01:17:31;93798.97;;;8.43;73.05
81608;BME280;71022;48.122;11.576;2024-02-23T01:19:59;93793.47;;;8.40;72.56
81608;BME280;71022;48.122;11.576;2024-02-23T01:22:27;93801.53;;;8.18;72.79
81608;BME280;71022;48.122;11.576;2024-02-23T01:24:54;93806.38;;;8.36;72.26
81608;BME280;71022;48.122;11.576;2024-02-23T01:27:21;93818.88;;;8.40;71.20
81608;BME280;71022;48.122;11.576;2024-02-23T01:29:49;93827.03;;;8.29;72.49
81608;BME280;71022;48.122;11.576;2024-02-23T01:32:16;93823.38;;;8.11;73.78
81608;BME280;71022;48.122;11.576;2024-02-23T01:34:44;93818.06;;;8.32;71.78
81608;BME280;71022;48.122;11.576;2024-02-23T01:37:11;93830.38;;;8.12;72.44
81608;BME280;71022;48.122;11.576;2024-02-23T01:39:38;93839.25;;;7.95;72.75
81608;BME280;71022;48.122;11.576;2024-02-23T01:42:06;93838.16;;;8.03;71.41
81608;BME280;71022;48.122;11.576;2024-02-23T01:44:33;93833.47;;;8.00;71.99
81608;BME280;71022;48.122;11.576;2024-02-23T01:47:00;93829.56;;;8.05;71.35
81608;BME280;71022;48.122;11.576;2024-02-23T01:49:28;93833.44;;;7.97;72.01
81608;BME280;71022;48.122;11.576;2024-02-23T01:52:00;93820.22;;;8.06;71.40
81608;BME280;71022;48.122;11.576;2024-02-23T01:54:29;93821.34;;;8.01;71.36
81608;BME280;71022;48.122;11.576;2024-02-23T01:56:58;93834.84;;;7.80;71.80
81608;BME280;71022;48.122;11.576;2024-02-23T01:59:42;93830.97;;;7.81;72.28
81608;BME280;71022;48.122;11.576;2024-02-23T02:02:10;93822.00;;;7.84;71.82
81608;BME280;71022;48.122;11.576;2024-02-23T02:04:38;93828.78;;;8.04;70.52
81608;BME280;71022;48.122;11.576;2024-02-23T02:07:05;93828.75;;;8.01;70.45
81608;BME280;71022;48.122;11.576;2024-02-23T02:09:32;93826.78;;;7.94;71.35
81608;BME280;71022;48.122;11.576;2024-02-23T02:12:00;93817.41;;;7.95;71.91
81608;BME280;71022;48.122;11.576;2024-02-23T02:14:27;93825.34;;;8.14;70.95
81608;BME280;71022;48.122;11.576;2024-02-23T02:16:58;93827.34;;;8.24;70.64
81608;BME280;71022;48.122;11.576;2024-02-23T02:19:25;93840.09;;;7.99;71.69
81608;BME280;71022;48.122;11.576;2024-02-23T02:21:52;93841.41;;;8.23;70.95
81608;BME280;71022;48.122;11.576;2024-02-23T02:24:20;93841.50;;;7.82;71.56
81608;BME280;71022;48.122;11.576;2024-02-23T02:26:48;93840.22;;;7.66;72.02
81608;BME280;71022;48.122;11.576;2024-02-23T02:29:17;93842.69;;;7.82;70.39
81608;BME280;71022;48.122;11.576;2024-02-23T02:31:44;93852.00;;;7.77;70.99
81608;BME280;71022;48.122;11.576;2024-02-23T02:34:11;93862.81;;;7.63;70.97
81608;BME280;71022;48.122;11.576;2024-02-23T02:36:41;93853.19;;;7.36;71.64
81608;BME280;71022;48.122;11.576;2024-02-23T02:39:09;93861.22;;;7.58;70.91
81608;BME280;71022;48.122;11.576;2024-02-23T02:41:37;93869.50;;;7.69;70.86
81608;BME280;71022;48.122;11.576;2024-02-23T02:44:05;93862.41;;;7.61;71.32
81608;BME280;71022;48.122;11.576;2024-02-23T02:46:32;93875.16;;;7.90;70.95
81608;BME280;71022;48.122;11.576;2024-02-23T02:49:00;93871.31;;;7.54;70.24
81608;BME280;71022;48.122;11.576;2024-02-23T02:51:27;93879.47;;;7.51;71.50
81608;BME280;71022;48.122;11.576;2024-02-23T02:53:54;93875.56;;;7.92;71.33
81608;BME280;71022;48.122;11.576;2024-02-23T02:56:21;93879.41;;;7.84;71.88
81608;BME280;71022;48.122;11.576;2024-02-23T02:58:48;93874.38;;;7.46;73.24
81608;BME280;71022;48.122;11.576;2024-02-23T03:01:15;93872.78;;;7.45;72.68
81608;BME280;71022;48.122;11.576;2024-02-23T03:03:43;93878.59;;;7.40;73.65
81608;BME280;71022;48.122;11.576;2024-02-23T03:06:10;93869.13;;;7.67;72.51
81608;BME280;71022;48.122;11.576;2024-02-23T03:08:37;93864.72;;;8.03;71.84
81608;BME280;71022;48.122;11.576;2024-02-23T03:11:04;93872.16;;;7.62;71.65
81608;BME280;71022;48.122;11.576;2024-02-23T03:13:32;93868.84;;;7.39;72.57
81608;BME280;71022;48.122;11.576;2024-02-23T03:15:59;93869.94;;;7.31;72.34
81608;BME280;71022;48.122;11.576;2024-02-23T03:18:27;93870.09;;;7.48;71.96
81608;BME280;71022;48.122;11.576;2024-02-23T03:20:56;93883.38;;;7.50;72.99
81608;BME280;71022;48.122;11.576;2024-02-23T03:23:24;93871.81;;;7.27;72.61
81608;BME280;71022;48.122;11.576;2024-02-23T03:25:51;93874.88;;;7.18;72.43
81608;BME280;71022;48.122;11.576;2024-02-23T03:28:18;93879.63;;;7.24;72.59
81608;BME280;71022;48.122;11.576;2024-02-23T03:30:46;93877.44;;;7.41;71.66
81608;BME280;71022;48.122;11.576;2024-02-23T03:33:13;93876.44;;;7.19;72.68
81608;BME280;71022;48.122;11.576;2024-02-23T03:35:40;93876.47;;;7.22;72.44
81608;BME280;71022;48.122;11.576;2024-02-23T03:38:08;93878.13;;;7.31;72.83
81608;BME280;71022;48.122;11.576;2024-02-23T03:40:35;93874.56;;;7.27;72.83
81608;BME280;71022;48.122;11.576;2024-02-23T03:43:03;93875.78;;;7.33;71.97
81608;BME280;71022;48.122;11.576;2024-02-23T03:45:31;93875.13;;;7.43;71.65
81608;BME280;71022;48.122;11.576;2024-02-23T03:47:59;93870.19;;;7.18;71.96
81608;BME280;71022;48.122;11.576;2024-02-23T03:50:26;93875.75;;;7.29;71.97
81608;BME280;71022;48.122;11.576;2024-02-23T03:52:54;93876.50;;;7.26;72.25
81608;BME280;71022;48.122;11.576;2024-02-23T03:55:21;93885.69;;;7.48;71.08
81608;BME280;71022;48.122;11.576;2024-02-23T03:57:49;93897.41;;;7.11;71.84
81608;BME280;71022;48.122;11.576;2024-02-23T04:00:17;93888.91;;;7.16;72.49
81608;BME280;71022;48.122;11.576;2024-02-23T04:02:44;93881.78;;;7.08;72.57
81608;BME280;71022;48.122;11.576;2024-02-23T04:05:11;93892.34;;;7.10;72.85
81608;BME280;71022;48.122;11.576;2024-02-23T04:07:39;93889.03;;;7.31;72.47
81608;BME280;71022;48.122;11.576;2024-02-23T04:10:07;93891.94;;;7.11;72.39
81608;BME280;71022;48.122;11.576;2024-02-23T04:12:34;93891.28;;;7.21;72.09
81608;BME280;71022;48.122;11.576;2024-02-23T04:15:02;93893.19;;;7.17;72.26
81608;BME280;71022;48.122;11.576;2024-02-23T04:17:29;93890.31;;;7.03;71.12
81608;BME280;71022;48.122;11.576;2024-02-23T04:19:56;93896.75;;;7.21;71.47
81608;BME280;71022;48.122;11.576;2024-02-23T04:22:23;93894.34;;;7.16;71.34
81608;BME280;71022;48.122;11.576;2024-02-23T04:24:51;93897.19;;;6.94;72.14
81608;BME280;71022;48.122;11.576;2024-02-23T04:27:18;93893.53;;;7.12;71.97
81608;BME280;71022;48.122;11.576;2024-02-23T04:29:45;93896.84;;;6.95;70.54
81608;BME280;71022;48.122;11.576;2024-02-23T04:32:12;93897.03;;;6.80;70.22
81608;BME280;71022;48.122;11.576;2024-02-23T04:34:40;93889.94;;;6.75;69.95
81608;BME280;71022;48.122;11.576;2024-02-23T04:37:08;93891.69;;;6.57;70.46
81608;BME280;71022;48.122;11.576;2024-02-23T04:39:36;93901.94;;;6.67;70.31
81608;BME280;71022;48.122;11.576;2024-02-23T04:42:05;93898.91;;;6.46;72.13
81608;BME280;71022;48.122;11.576;2024-02-23T04:44:32;93895.16;;;6.54;72.33
81608;BME280;71022;48.122;11.576;2024-02-23T04:46:59;93904.59;;;6.60;72.08
81608;BME280;71022;48.122;11.576;2024-02-23T04:49:26;93902.19;;;6.88;71.34
81608;BME280;71022;48.122;11.576;2024-02-23T04:51:54;93899.94;;;6.64;71.69
81608;BME280;71022;48.122;11.576;2024-02-23T04:54:21;93904.09;;;6.54;72.00
81608;BME280;71022;48.122;11.576;2024-02-23T04:56:48;93906.69;;;6.44;73.01
81608;BME280;71022;48.122;11.576;2024-02-23T04:59:16;93914.06;;;6.43;73.20
81608;BME280;71022;48.122;11.576;2024-02-23T05:01:43;93915.38;;;6.53;73.55
81608;BME280;71022;48.122;11.576;2024-02-23T05:04:11;93913.13;;;6.58;73.36
81608;BME280;71022;48.122;11.576;2024-02-23T05:06:38;93903.06;;;6.66;74.61
81608;BME280;71022;48.122;11.576;2024-02-23T05:09:05;93885.06;;;6.58;75.03
81608;BME280;71022;48.122;11.576;2024-02-23T05:11:36;93880.97;;;7.04;73.80
81608;BME280;71022;48.122;11.576;2024-02-23T05:14:03;93873.03;;;6.92;73.66
81608;BME280;71022;48.122;11.576;2024-02-23T05:16:30;93881.72;;;7.01;73.30
81608;BME280;71022;48.122;11.576;2024-02-23T05:18:58;93884.44;;;7.01;73.63
81608;BME280;71022;48.122;11.576;2024-02-23T05:21:25;93880.81;;;6.94;74.09
81608;BME280;71022;48.122;11.576;2024-02-23T05:23:52;93893.44;;;7.05;74.37
81608;BME280;71022;48.122;11.576;2024-02-23T05:26:20;93905.34;;;7.23;73.97
81608;BME280;71022;48.122;11.576;2024-02-23T05:28:47;93905.34;;;7.23;73.55
81608;BME280;71022;48.122;11.576;2024-02-23T05:31:15;93903.84;;;7.30;73.33
81608;BME280;71022;48.122;11.576;2024-02-23T05:33:42;93901.47;;;7.24;73.64
81608;BME280;71022;48.122;11.576;2024-02-23T05:36:09;93899.38;;;6.81;74.81
81608;BME280;71022;48.122;11.576;2024-02-23T05:38:36;93906.06;;;6.84;75.81
81608;BME280;71022;48.122;11.576;2024-02-23T05:41:04;93903.34;;;6.87;74.97
81608;BME280;71022;48.122;11.576;2024-02-23T05:43:32;93906.69;;;7.03;75.15
81608;BME280;71022;48.122;11.576;2024-02-23T05:45:59;93912.34;;;7.21;74.32
81608;BME280;71022;48.122;11.576;2024-02-23T05:48:26;93908.59;;;7.36;73.96
81608;BME280;71022;48.122;11.576;2024-02-23T05:50:53;93909.25;;;7.26;74.20
81608;BME280;71022;48.122;11.576;2024-02-23T05:53:21;93918.28;;;7.30;73.86
81608;BME280;71022;48.122;11.576;2024-02-23T05:55:48;93924.94;;;7.33;74.14
81608;BME280;71022;48.122;11.576;2024-02-23T05:58:15;93920.97;;;7.27;73.83
81608;BME280;71022;48.122;11.576;2024-02-23T06:00:43;93922.34;;;7.47;73.58
81608;BME280;71022;48.122;11.576;2024-02-23T06:03:11;93932.63;;;7.23;73.91
81608;BME280;71022;48.122;11.576;2024-02-23T06:05:40;93938.63;;;7.03;75.35
81608;BME280;71022;48.122;11.576;2024-02-23T06:08:07;93939.03;;;6.75;75.54
81608;BME280;71022;48.122;11.576;2024-02-23T06:10:35;93932.72;;;6.67;76.48
81608;BME280;71022;48.122;11.576;2024-02-23T06:13:02;93939.81;;;6.46;77.63
81608;BME280;71022;48.122;11.576;2024-02-23T06:15:30;93937.03;;;6.68;77.00
81608;BME280;71022;48.122;11.576;2024-02-23T06:17:58;93939.72;;;6.65;76.61
81608;BME280;71022;48.122;11.576;2024-02-23T06:20:25;93941.75;;;6.72;76.44
81608;BME280;71022;48.122;11.576;2024-02-23T06:22:53;93949.94;;;6.72;75.51
81608;BME280;71022;48.122;11.576;2024-02-23T06:25:20;93962.69;;;6.94;73.67
81608;BME280;71022;48.122;11.576;2024-02-23T06:27:47;93958.13;;;7.01;73.39
81608;BME280;71022;48.122;11.576;2024-02-23T06:30:14;93962.75;;;6.97;73.47
81608;BME280;71022;48.122;11.576;2024-02-23T06:32:42;93961.59;;;6.98;73.60
81608;BME280;71022;48.122;11.576;2024-02-23T06:35:10;93961.03;;;7.15;71.88
81608;BME280;71022;48.122;11.576;2024-02-23T06:37:39;93964.94;;;7.18;71.38
81608;BME280;71022;48.122;11.576;2024-02-23T06:40:06;93968.81;;;7.13;70.71
81608;BME280;71022;48.122;11.576;2024-02-23T06:42:34;93974.00;;;6.92;71.78
81608;BME280;71022;48.122;11.576;2024-02-23T06:45:01;93961.38;;;7.14;70.87
81608;BME280;71022;48.122;11.576;2024-02-23T06:47:28;93963.41;;;7.20;70.44
81608;BME280;71022;48.122;11.576;2024-02-23T06:49:55;93959.94;;;7.23;69.79
81608;BME280;71022;48.122;11.576;2024-02-23T06:52:23;93949.34;;;7.18;70.90
81608;BME280;71022;48.122;11.576;2024-02-23T06:54:50;93952.94;;;7.22;70.19
81608;BME280;71022;48.122;11.576;2024-02-23T06:57:17;93949.94;;;7.35;69.88
81608;BME280;71022;48.122;11.576;2024-02-23T06:59:45;93958.91;;;7.35;69.23
81608;BME280;71022;48.122;11.576;2024-02-23T07:02:12;93961.34;;;7.44;68.86
81608;BME280;71022;48.122;11.576;2024-02-23T07:04:39;93969.38;;;7.30;69.04
81608;BME280;71022;48.122;11.576;2024-02-23T07:07:06;93961.47;;;7.21;69.52
81608;BME280;71022;48.122;11.576;2024-02-23T07:09:35;93969.31;;;7.26;69.21
81608;BME280;71022;48.122;11.576;2024-02-23T07:12:02;93977.31;;;7.42;68.30
81608;BME280;71022;48.122;11.576;2024-02-23T07:14:30;93980.75;;;7.05;70.04
81608;BME280;71022;48.122;11.576;2024-02-23T07:16:57;93983.38;;;6.95;69.72
81608;BME280;71022;48.122;11.576;2024-02-23T07:19:24;93982.56;;;7.24;69.54
81608;BME280;71022;48.122;11.576;2024-02-23T07:21:52;93992.25;;;7.51;67.65
81608;BME280;71022;48.122;11.576;2024-02-23T07:24:19;93999.06;;;7.31;69.36
81608;BME280;71022;48.122;11.576;2024-02-23T07:26:47;94001.50;;;7.40;68.55
81608;BME280;71022;48.122;11.576;2024-02-23T07:29:14;93995.13;;;7.32;69.06
81608;BME280;71022;48.122;11.576;2024-02-23T07:31:44;94000.06;;;7.53;67.86
81608;BME280;71022;48.122;11.576;2024-02-23T07:34:11;94008.50;;;7.41;68.72
81608;BME280;71022;48.122;11.576;2024-02-23T07:36:39;94009.75;;;7.47;67.78
81608;BME280;71022;48.122;11.576;2024-02-23T07:39:06;94003.63;;;7.57;67.70
81608;BME280;71022;48.122;11.576;2024-02-23T07:41:33;94020.22;;;7.41;68.27
81608;BME280;71022;48.122;11.576;2024-02-23T07:44:00;94003.19;;;7.51;67.46
81608;BME280;71022;48.122;11.576;2024-02-23T07:46:28;93999.94;;;7.42;68.30
81608;BME280;71022;48.122;11.576;2024-02-23T07:48:55;93999.16;;;7.42;67.28
81608;BME280;71022;48.122;11.576;2024-02-23T07:51:22;94000.47;;;7.21;68.24
81608;BME280;71022;48.122;11.576;2024-02-23T07:53:50;93998.34;;;7.38;67.40
81608;BME280;71022;48.122;11.576;2024-02-23T07:56:17;94002.22;;;7.37;67.14
81608;BME280;71022;48.122;11.576;2024-02-23T07:58:44;94002.41;;;7.51;67.09
81608;BME280;71022;48.122;11.576;2024-02-23T08:01:12;93996.84;;;7.44;67.03
81608;BME280;71022;48.122;11.576;2024-02-23T08:03:41;93990.13;;;7.71;66.35
81608;BME280;71022;48.122;11.576;2024-02-23T08:06:10;93981.53;;;7.69;66.42
81608;BME280;71022;48.122;11.576;2024-02-23T08:08:37;93976.81;;;7.66;66.17
81608;BME280;71022;48.122;11.576;2024-02-23T08:11:04;93977.63;;;7.70;65.50
81608;BME280;71022;48.122;11.576;2024-02-23T08:13:32;93969.94;;;7.79;64.96
81608;BME280;71022;48.122;11.576;2024-02-23T08:15:59;93966.81;;;7.80;63.91
81608;BME280;71022;48.122;11.576;2024-02-23T08:18:26;93971.47;;;7.80;63.73
81608;BME280;71022;48.122;11.576;2024-02-23T08:20:54;93990.28;;;7.89;63.53
81608;BME280;71022;48.122;11.576;2024-02-23T08:23:21;93993.56;;;8.01;63.49
81608;BME280;71022;48.122;11.576;2024-02-23T08:25:50;93966.75;;;7.77;64.13
81608;BME280;71022;48.122;11.576;2024-02-23T08:28:17;93953.69;;;7.97;62.91
81608;BME280;71022;48.122;11.576;2024-02-23T08:30:45;93963.84;;;7.96;62.68
81608;BME280;71022;48.122;11.576;2024-02-23T08:33:12;93959.22;;;8.04;62.99
81608;BME280;71022;48.122;11.576;2024-02-23T08:35:39;93967.09;;;8.09;62.65
81608;BME280;71022;48.122;11.576;2024-02-23T08:38:07;93966.28;;;8.08;62.63
81608;BME280;71022;48.122;11.576;2024-02-23T08:40:34;93965.94;;;8.13;62.13
81608;BME280;71022;48.122;11.576;2024-02-23T08:43:02;93967.16;;;8.19;62.43
81608;BME280;71022;48.122;11.576;2024-02-23T08:45:30;93977.28;;;8.15;61.38
81608;BME280;71022;48.122;11.576;2024-02-23T08:47:57;93969.47;;;8.14;61.73
81608;BME280;71022;48.122;11.576;2024-02-23T08:50:25;93970.13;;;8.04;61.88
81608;BME280;71022;48.122;11.576;2024-02-23T08:52:52;93965.41;;;7.97;62.03
81608;BME280;71022;48.122;11.576;2024-02-23T08:55:19;93995.00;;;7.88;62.39
81608;BME280;71022;48.122;11.576;2024-02-23T08:57:48;94011.44;;;7.95;61.91
81608;BME280;71022;48.122;11.576;2024-02-23T09:00:15;94013.28;;;8.21;61.57
81608;BME280;71022;48.122;11.576;2024-02-23T09:02:44;94008.94;;;7.76;62.30
81608;BME280;71022;48.122;11.576;2024-02-23T09:05:12;94008.97;;;7.83;62.40
81608;BME280;71022;48.122;11.576;2024-02-23T09:07:39;94019.84;;;7.76;61.48
81608;BME280;71022;48.122;11.576;2024-02-23T09:10:07;94028.25;;;7.60;62.86
81608;BME280;71022;48.122;11.576;2024-02-23T09:12:35;94025.47;;;7.90;60.98
81608;BME280;71022;48.122;11.576;2024-02-23T09:15:02;94041.38;;;7.81;60.96
81608;BME280;71022;48.122;11.576;2024-02-23T09:17:30;94048.59;;;7.63;62.23
81608;BME280;71022;48.122;11.576;2024-02-23T09:19:57;94052.66;;;7.79;62.59
81608;BME280;71022;48.122;11.576;2024-02-23T09:22:25;94050.53;;;7.62;62.86
81608;BME280;71022;48.122;11.576;2024-02-23T09:24:52;94045.34;;;7.54;62.51
81608;BME280;71022;48.122;11.576;2024-02-23T09:27:22;94045.50;;;7.64;62.69
81608;BME280;71022;48.122;11.576;2024-02-23T09:29:49;94047.13;;;7.72;62.14
81608;BME280;71022;48.122;11.576;2024-02-23T09:32:16;94051.56;;;7.51;63.34
81608;BME280;71022;48.122;11.576;2024-02-23T09:34:44;94047.84;;;7.66;62.06
81608;BME280;71022;48.122;11.576;2024-02-23T09:37:11;94047.13;;;7.72;62.16
81608;BME280;71022;48.122;11.576;2024-02-23T09:39:38;94045.44;;;7.94;61.00
81608;BME280;71022;48.122;11.576;2024-02-23T09:42:09;94047.34;;;7.90;61.60
81608;BME280;71022;48.122;11.576;2024-02-23T09:44:37;94055.94;;;7.92;61.05
81608;BME280;71022;48.122;11.576;2024-02-23T09:47:07;94053.59;;;7.91;61.49
81608;BME280;71022;48.122;11.576;2024-02-23T09:49:40;94050.22;;;7.71;61.58
81608;BME280;71022;48.122;11.576;2024-02-23T09:52:08;94048.16;;;7.94;61.52
81608;BME280;71022;48.122;11.576;2024-02-23T09:54:37;94045.38;;;7.91;61.64
81608;BME280;71022;48.122;11.576;2024-02-23T09:57:08;94041.13;;;7.93;61.53
81608;BME280;71022;48.122;11.576;2024-02-23T09:59:37;94044.19;;;7.88;62.04
81608;BME280;71022;48.122;11.576;2024-02-23T10:02:09;94049.09;;;8.12;61.06
81608;BME280;71022;48.122;11.576;2024-02-23T10:04:38;94059.81;;;7.88;60.66
81608;BME280;71022;48.122;11.576;2024-02-23T10:07:06;94059.75;;;7.84;61.46
81608;BME280;71022;48.122;11.576;2024-02-23T10:09:34;94064.13;;;7.92;60.67
81608;BME280;71022;48.122;11.576;2024-02-23T10:12:04;94059.91;;;7.98;61.19
81608;BME280;71022;48.122;11.576;2024-02-23T10:14:32;94056.47;;;8.05;60.80
81608;BME280;71022;48.122;11.576;2024-02-23T10:16:59;94051.09;;;8.12;60.09
81608;BME280;71022;48.122;11.576;2024-02-23T10:19:29;94058.41;;;8.04;60.58
81608;BME280;71022;48.122;11.576;2024-02-23T10:21:57;94052.00;;;7.90;60.77
81608;BME280;71022;48.122;11.576;2024-02-23T10:24:25;94053.91;;;7.86;60.75
81608;BME280;71022;48.122;11.576;2024-02-23T10:26:52;94046.44;;;7.79;61.60
81608;BME280;71022;48.122;11.576;2024-02-23T10:29:20;94033.25;;;7.21;63.15
81608;BME280;71022;48.122;11.576;2024-02-23T10:31:51;94017.09;;;7.39;63.42
81608;BME280;71022;48.122;11.576;2024-02-23T10:34:19;94027.16;;;7.35;63.98
81608;BME280;71022;48.122;11.576;2024-02-23T10:36:47;94035.06;;;7.44;63.78
81608;BME280;71022;48.122;11.576;2024-02-23T10:39:16;94035.56;;;7.19;64.55
81608;BME280;71022;48.122;11.576;2024-02-23T10:41:56;94035.38;;;7.68;63.29
81608;BME280;71022;48.122;11.576;2024-02-23T10:44:24;94042.44;;;7.40;63.04
81608;BME280;71022;48.122;11.576;2024-02-23T10:46:52;94039.16;;;7.57;62.29
81608;BME280;71022;48.122;11.576;2024-02-23T10:49:23;94036.31;;;7.50;62.60
81608;BME280;71022;48.122;11.576;2024-02-23T10:51:54;94035.16;;;7.51;62.76
81608;BME280;71022;48.122;11.576;2024-02-23T10:54:22;94039.25;;;7.64;62.05
81608;BME280;71022;48.122;11.576;2024-02-23T10:56:50;94039.88;;;7.87;62.26
81608;BME280;71022;48.122;11.576;2024-02-23T10:59:19;94040.88;;;7.72;61.95
81608;BME280;71022;48.122;11.576;2024-02-23T11:01:48;94049.72;;;7.95;61.94
81608;BME280;71022;48.122;11.576;2024-02-23T11:04:17;94053.41;;;7.73;62.61
81608;BME280;71022;48.122;11.576;2024-02-23T11:06:51;94060.84;;;7.76;62.73
81608;BME280;71022;48.122;11.576;2024-02-23T11:09:24;94054.28;;;7.84;61.77
81608;BME280;71022;48.122;11.576;2024-02-23T11:11:56;94049.41;;;7.67;62.10
81608;BME280;71022;48.122;11.576;2024-02-23T11:14:35;94043.16;;;7.66;61.44
81608;BME280;71022;48.122;11.576;2024-02-23T11:17:04;94038.66;;;7.48;61.75
81608;BME280;71022;48.122;11.576;2024-02-23T11:19:39;94041.72;;;7.76;61.79
81608;BME280;71022;48.122;11.576;2024-02-23T11:22:10;94041.38;;;7.81;60.95
81608;BME280;71022;48.122;11.576;2024-02-23T11:24:49;94047.00;;;7.62;61.32
81608;BME280;71022;48.122;11.576;2024-02-23T11:27:24;94039.97;;;7.61;60.62
81608;BME280;71022;48.122;11.576;2024-02-23T11:30:05;94034.41;;;7.54;61.03
81608;BME280;71022;48.122;11.576;2024-02-23T11:32:44;94046.19;;;7.58;60.40
81608;BME280;71022;48.122;11.576;2024-02-23T11:35:15;94045.19;;;7.73;59.83
81608;BME280;71022;48.122;11.576;2024-02-23T11:37:47;94039.25;;;7.64;60.29
81608;BME280;71022;48.122;11.576;2024-02-23T11:40:17;94035.00;;;7.70;60.18
81608;BME280;71022;48.122;11.576;2024-02-23T11:42:46;94027.28;;;7.12;60.35
81608;BME280;71022;48.122;11.576;2024-02-23T11:45:14;94033.56;;;7.16;61.18
81608;BME280;71022;48.122;11.576;2024-02-23T11:47:42;94035.25;;;7.58;60.36
81608;BME280;71022;48.122;11.576;2024-02-23T11:50:10;94038.81;;;7.62;59.91
81608;BME280;71022;48.122;11.576;2024-02-23T11:52:38;94043.22;;;7.70;60.23
81608;BME280;71022;48.122;11.576;2024-02-23T11:55:06;94049.47;;;7.74;59.57
81608;BME280;71022;48.122;11.576;2024-02-23T11:57:34;94040.88;;;7.72;59.73
81608;BME280;71022;48.122;11.576;2024-02-23T12:00:13;94035.81;;;7.41;60.44
81608;BME280;71022;48.122;11.576;2024-02-23T12:02:42;94031.53;;;7.40;59.37
81608;BME280;71022;48.122;11.576;2024-02-23T12:05:10;94030.00;;;7.12;60.40
81608;BME280;71022;48.122;11.576;2024-02-23T12:07:37;94022.16;;;7.41;59.56
81608;BME280;71022;48.122;11.576;2024-02-23T12:10:05;94033.41;;;7.36;59.72
81608;BME280;71022;48.122;11.576;2024-02-23T12:12:33;94032.03;;;7.49;59.15
81608;BME280;71022;48.122;11.576;2024-02-23T12:15:00;94033.22;;;7.51;58.77
81608;BME280;71022;48.122;11.576;2024-02-23T12:17:27;94037.78;;;7.10;59.84
81608;BME280;71022;48.122;11.576;2024-02-23T12:20:00;94042.28;;;7.26;59.89
81608;BME280;71022;48.122;11.576;2024-02-23T12:22:27;94048.19;;;7.31;59.12
81608;BME280;71022;48.122;11.576;2024-02-23T12:24:59;94031.91;;;6.82;59.95
81608;BME280;71022;48.122;11.576;2024-02-23T12:27:26;94027.22;;;7.09;59.33
81608;BME280;71022;48.122;11.576;2024-02-23T12:29:56;94016.34;;;7.42;58.96
81608;BME280;71022;48.122;11.576;2024-02-23T12:32:24;94015.38;;;7.28;59.32
81608;BME280;71022;48.122;11.576;2024-02-23T12:34:52;94012.03;;;7.11;58.88
81608;BME280;71022;48.122;11.576;2024-02-23T12:37:19;94004.66;;;7.45;58.82
81608;BME280;71022;48.122;11.576;2024-02-23T12:39:49;94004.56;;;7.38;58.95
81608;BME280;71022;48.122;11.576;2024-02-23T12:42:18;94002.72;;;7.12;58.46
81608;BME280;71022;48.122;11.576;2024-02-23T12:44:45;94007.78;;;6.84;59.07
81608;BME280;71022;48.122;11.576;2024-02-23T12:47:12;94012.38;;;7.06;58.96
81608;BME280;71022;48.122;11.576;2024-02-23T12:49:39;94013.69;;;7.16;58.38
81608;BME280;71022;48.122;11.576;2024-02-23T12:52:12;94023.81;;;7.15;58.90
81608;BME280;71022;48.122;11.576;2024-02-23T12:54:39;94017.13;;;6.83;59.08
81608;BME280;71022;48.122;11.576;2024-02-23T12:57:06;94004.31;;;6.87;59.27
81608;BME280;71022;48.122;11.576;2024-02-23T12:59:34;93990.47;;;7.33;57.94
81608;BME280;71022;48.122;11.576;2024-02-23T13:02:01;93979.72;;;7.47;58.11
81608;BME280;71022;48.122;11.576;2024-02-23T13:04:29;93975.41;;;7.12;58.04